Time;durP1;ratioP1;P1;durP2;ratioP2;P2;SDS_P1;SDS_P2;PMS_P1;PMS_P2;Temp;Humidity;BMP_temperature;BMP_pressure;BME280_temperature;BME280_humidity;BME280_pressure;Samples;Min_cycle;Max_cycle;Signal;HPM_P1;HPM_P2
2023/02/16 00:03:35;;;;;;;37.17;31.10;;;;;;;2.04;100.00;102217.34;10084249;28;20050;-67
2023/02/16 00:08:32;;;;;;;38.25;31.45;;;;;;;1.94;100.00;102217.03;10072086;28;20066;-67
2023/02/16 00:13:46;;;;;;;34.65;29.20;;;;;;;1.86;100.00;102216.28;10088574;28;20043;-67
2023/02/16 00:18:43;;;;;;;34.92;29.08;;;;;;;1.77;100.00;102209.53;10077997;28;20098;-66
2023/02/16 00:23:40;;;;;;;35.45;29.08;;;;;;;1.74;100.00;102218.06;10085492;28;20047;-66
2023/02/16 00:28:36;;;;;;;32.13;27.35;;;;;;;1.77;100.00;102212.22;10075736;28;20114;-67
2023/02/16 00:33:33;;;;;;;37.95;28.33;;;;;;;1.74;100.00;102201.91;10078230;28;20055;-67
2023/02/16 00:38:29;;;;;;;31.92;27.52;;;;;;;1.68;100.00;102208.16;10084347;28;20532;-67
2023/02/16 00:43:27;;;;;;;31.70;27.95;;;;;;;1.67;100.00;102201.09;10072337;28;20043;-67
2023/02/16 00:48:24;;;;;;;38.33;29.27;;;;;;;1.62;100.00;102192.84;10075978;28;20484;-66
2023/02/16 00:53:20;;;;;;;35.60;30.15;;;;;;;1.55;100.00;102192.91;10072015;28;20428;-67
2023/02/16 00:58:24;;;;;;;34.60;28.90;;;;;;;1.53;100.00;102202.28;10076056;28;20047;-67
2023/02/16 01:03:26;;;;;;;39.70;30.88;;;;;;;1.41;100.00;102186.81;10080709;28;20523;-66
2023/02/16 01:13:46;;;;;;;40.42;32.13;;;;;;;1.33;100.00;102195.19;10083033;28;20415;-68
2023/02/16 01:18:43;;;;;;;34.75;30.23;;;;;;;1.33;100.00;102188.97;10073577;28;20066;-68
2023/02/16 01:23:40;;;;;;;37.25;29.50;;;;;;;1.30;100.00;102174.09;10069799;28;20145;-66
2023/02/16 01:28:36;;;;;;;41.83;32.80;;;;;;;1.24;100.00;102180.34;10079001;28;20622;-66
2023/02/16 01:33:33;;;;;;;37.15;29.35;;;;;;;1.21;100.00;102167.31;10051242;28;20048;-66
2023/02/16 01:38:30;;;;;;;39.10;30.17;;;;;;;1.20;100.00;102162.94;10037276;28;20139;-66
2023/02/16 01:43:47;;;;;;;37.42;30.73;;;;;;;1.14;100.00;102164.66;10070871;28;20079;-67
2023/02/16 01:48:43;;;;;;;41.22;29.85;;;;;;;1.16;100.00;102165.28;10074329;28;20046;-68
2023/02/16 01:53:53;;;;;;;38.58;30.83;;;;;;;1.14;100.00;102158.44;10079075;28;20927;-68
2023/02/16 01:58:54;;;;;;;43.97;32.53;;;;;;;1.21;100.00;102164.63;10081245;28;20150;-68
2023/02/16 02:09:12;;;;;;;40.72;30.88;;;;;;;1.24;100.00;102153.41;10082944;28;20043;-67
2023/02/16 02:14:15;;;;;;;42.42;32.60;;;;;;;1.32;100.00;102161.19;10080020;28;20043;-69
2023/02/16 02:19:11;;;;;;;41.22;31.25;;;;;;;1.32;100.00;102160.38;10084879;28;20131;-69
2023/02/16 02:24:36;;;;;;;45.97;33.13;;;;;;;1.30;100.00;102162.44;10079713;28;20449;-69
2023/02/16 02:29:47;;;;;;;44.28;33.03;;;;;;;1.29;100.00;102161.63;10085511;28;20617;-69
2023/02/16 02:34:58;;;;;;;52.67;36.30;;;;;;;1.31;100.00;102164.94;10082655;28;20130;-67
2023/02/16 02:40:14;;;;;;;50.03;35.55;;;;;;;1.19;100.00;102161.31;10084085;28;20047;-67
2023/02/16 02:45:23;;;;;;;54.70;37.35;;;;;;;1.20;100.00;102157.56;10091408;28;20059;-69
2023/02/16 02:51:27;;;;;;;46.08;34.65;;;;;;;1.22;100.00;102155.47;10095434;28;20062;-69
2023/02/16 03:01:17;;;;;;;47.35;35.25;;;;;;;1.28;100.00;102138.44;10072018;28;20094;-67
2023/02/16 03:06:22;;;;;;;53.58;37.22;;;;;;;1.39;100.00;102140.41;10085489;28;20049;-67
2023/02/16 03:16:41;;;;;;;63.97;41.30;;;;;;;2.04;100.00;102136.41;10070213;28;20183;-67
2023/02/16 03:32:11;;;;;;;59.17;39.45;;;;;;;2.84;100.00;102132.63;10090656;28;20061;-67
2023/02/16 03:37:08;;;;;;;62.10;41.97;;;;;;;3.23;100.00;102127.66;10080283;28;20070;-68
2023/02/16 03:42:05;;;;;;;59.80;37.45;;;;;;;3.48;100.00;102122.00;10078093;28;20040;-68
2023/02/16 03:47:01;;;;;;;53.97;33.13;;;;;;;3.42;100.00;102114.84;10088329;28;20046;-67
2023/02/16 03:51:58;;;;;;;51.95;34.45;;;;;;;3.55;100.00;102104.59;10091778;28;20049;-66
2023/02/16 03:56:54;;;;;;;53.88;33.70;;;;;;;3.54;100.00;102097.53;10078993;28;20043;-66
2023/02/16 04:01:50;;;;;;;58.40;35.05;;;;;;;3.58;100.00;102090.59;10089503;28;20450;-66
2023/02/16 04:06:47;;;;;;;53.10;33.28;;;;;;;3.67;100.00;102087.53;10077983;28;20042;-67
2023/02/16 04:16:58;;;;;;;54.65;35.67;;;;;;;3.48;100.00;102070.63;10084156;28;20039;-67
2023/02/16 04:21:54;;;;;;;54.00;34.95;;;;;;;3.13;100.00;102079.56;10077733;28;20073;-66
2023/02/16 04:26:51;;;;;;;59.42;37.20;;;;;;;3.22;100.00;102077.34;10082478;28;20039;-66
2023/02/16 04:31:48;;;;;;;56.97;37.30;;;;;;;3.08;100.00;102082.97;10089374;28;20106;-66
2023/02/16 04:36:45;;;;;;;53.67;34.65;;;;;;;3.16;100.00;102090.75;10088138;28;20497;-66
2023/02/16 04:41:41;;;;;;;58.78;36.97;;;;;;;3.27;100.00;102080.16;10087522;28;20051;-66
2023/02/16 04:46:38;;;;;;;58.15;36.17;;;;;;;3.30;100.00;102079.69;10076555;28;20070;-66
2023/02/16 04:51:34;;;;;;;51.28;35.42;;;;;;;3.26;100.00;102068.53;10082679;28;20071;-67
2023/02/16 04:56:31;;;;;;;44.53;32.08;;;;;;;3.22;100.00;102071.94;10069926;28;20138;-67
2023/02/16 05:01:27;;;;;;;48.25;34.63;;;;;;;3.23;100.00;102073.59;10078085;28;20126;-67
2023/02/16 05:06:24;;;;;;;50.83;34.15;;;;;;;3.07;100.00;102069.72;10093135;28;20043;-67
2023/02/16 05:16:36;;;;;;;52.08;36.08;;;;;;;3.01;100.00;102076.84;10085841;28;20039;-66
2023/02/16 05:21:34;;;;;;;55.20;39.00;;;;;;;3.20;100.00;102077.56;10072208;28;20117;-67
2023/02/16 05:26:32;;;;;;;56.00;37.97;;;;;;;3.11;100.00;102071.72;10063728;28;21060;-67
2023/02/16 05:31:29;;;;;;;58.42;38.88;;;;;;;3.15;100.00;102072.88;10059519;28;20421;-67
2023/02/16 05:36:26;;;;;;;55.85;38.55;;;;;;;3.23;100.00;102079.00;10067614;28;20051;-67
2023/02/16 05:41:22;;;;;;;53.85;38.08;;;;;;;3.35;100.00;102083.34;10070456;28;20146;-67
2023/02/16 05:46:20;;;;;;;52.35;36.80;;;;;;;3.40;100.00;102088.03;10057758;28;20059;-66
2023/02/16 05:51:18;;;;;;;50.83;37.33;;;;;;;3.43;100.00;102082.13;10062408;28;20052;-65
2023/02/16 05:56:15;;;;;;;59.92;37.15;;;;;;;3.46;100.00;102084.38;10064160;28;20043;-65
2023/02/16 06:01:13;;;;;;;54.53;35.97;;;;;;;3.49;100.00;102083.91;10064110;28;20510;-65
2023/02/16 06:06:09;;;;;;;55.85;37.10;;;;;;;3.50;100.00;102069.31;10060096;28;20651;-66
2023/02/16 06:11:34;;;;;;;55.63;36.58;;;;;;;3.57;100.00;102069.19;10044619;28;20053;-66
2023/02/16 06:16:25;;;;;;;53.50;36.22;;;;;;;3.56;100.00;102076.50;10061113;28;20058;-66
2023/02/16 06:21:22;;;;;;;55.42;37.72;;;;;;;3.65;100.00;102073.44;10060953;28;20162;-66
2023/02/16 06:26:18;;;;;;;61.53;34.97;;;;;;;3.73;100.00;102075.75;10076092;28;20061;-66
2023/02/16 06:31:16;;;;;;;51.90;34.25;;;;;;;3.77;100.00;102069.63;10065201;28;20446;-65
2023/02/16 06:36:12;;;;;;;52.97;33.92;;;;;;;3.79;100.00;102066.69;10077625;28;20047;-65
2023/02/16 06:41:10;;;;;;;52.05;34.25;;;;;;;3.84;100.00;102069.50;10065274;28;20051;-65
2023/02/16 06:46:07;;;;;;;53.67;35.53;;;;;;;3.94;100.00;102085.94;10058746;28;20043;-65
2023/02/16 06:51:04;;;;;;;54.25;35.45;;;;;;;3.99;100.00;102079.78;10059447;28;20054;-65
2023/02/16 06:56:01;;;;;;;56.95;35.85;;;;;;;3.98;100.00;102073.56;10078156;28;20047;-65
2023/02/16 07:00:57;;;;;;;55.22;35.70;;;;;;;4.03;100.00;102072.03;10070639;28;20849;-65
2023/02/16 07:05:54;;;;;;;54.10;36.90;;;;;;;4.06;100.00;102071.53;10067575;28;20502;-65
2023/02/16 07:10:52;;;;;;;56.13;37.17;;;;;;;4.16;100.00;102056.31;10063468;28;20494;-65
2023/02/16 07:15:49;;;;;;;59.30;36.85;;;;;;;4.26;100.00;102061.09;10075447;28;20070;-65
2023/02/16 07:20:46;;;;;;;51.95;35.28;;;;;;;4.37;100.00;102049.41;10071324;28;20043;-65
2023/02/16 07:25:42;;;;;;;53.65;33.70;;;;;;;4.42;100.00;102049.50;10071851;28;20577;-66
2023/02/16 07:30:39;;;;;;;52.92;34.42;;;;;;;4.52;100.00;102056.16;10063590;28;20497;-65
2023/02/16 07:35:36;;;;;;;51.22;33.40;;;;;;;4.63;100.00;102066.09;10072651;28;20103;-66
2023/02/16 07:40:33;;;;;;;51.35;32.00;;;;;;;4.67;100.00;102066.44;10074672;28;20043;-65
2023/02/16 07:45:31;;;;;;;52.60;35.28;;;;;;;4.77;100.00;102066.59;10067318;28;20126;-66
2023/02/16 07:50:28;;;;;;;50.75;33.53;;;;;;;4.89;100.00;102050.25;10084021;28;20039;-65
2023/02/16 07:55:24;;;;;;;49.85;33.13;;;;;;;4.96;100.00;102042.78;10078821;28;20746;-65
2023/02/16 08:00:21;;;;;;;52.78;33.20;;;;;;;5.05;100.00;102052.94;10061553;28;20059;-65
2023/02/16 08:05:17;;;;;;;50.03;33.30;;;;;;;5.17;100.00;102066.41;10068461;28;20055;-65
2023/02/16 08:10:14;;;;;;;54.55;32.15;;;;;;;5.24;100.00;102066.25;10076587;28;20047;-65
2023/02/16 08:15:11;;;;;;;56.30;35.85;;;;;;;5.33;100.00;102058.50;10069634;28;20465;-65
2023/02/16 08:20:08;;;;;;;55.25;32.67;;;;;;;5.31;100.00;102049.78;10073241;28;20422;-66
2023/02/16 08:25:05;;;;;;;49.83;33.13;;;;;;;5.30;100.00;102048.16;10072642;28;20043;-65
2023/02/16 08:30:02;;;;;;;51.35;32.20;;;;;;;5.35;100.00;102045.53;10066761;28;20418;-66
2023/02/16 08:34:59;;;;;;;50.15;32.45;;;;;;;5.42;100.00;102051.59;10069018;28;20071;-65
2023/02/16 08:39:59;;;;;;;55.95;34.33;;;;;;;5.51;100.00;102055.50;10069221;28;20078;-65
2023/02/16 08:44:55;;;;;;;48.22;32.83;;;;;;;5.55;100.00;102062.09;10061401;28;20047;-65
2023/02/16 08:49:52;;;;;;;48.88;30.35;;;;;;;5.62;100.00;102051.88;10065768;28;20058;-65
2023/02/16 08:54:48;;;;;;;52.15;34.78;;;;;;;5.74;100.00;102059.06;10069026;28;20051;-66
2023/02/16 09:00:32;;;;;;;46.97;31.35;;;;;;;5.83;100.00;102046.69;10064926;28;20504;-66
2023/02/16 09:05:02;;;;;;;52.17;31.58;;;;;;;5.92;100.00;102039.75;10067431;28;20243;-66
2023/02/16 09:09:58;;;;;;;43.92;30.05;;;;;;;5.94;100.00;102037.63;10069680;28;20130;-65
2023/02/16 09:14:54;;;;;;;50.63;32.05;;;;;;;5.97;100.00;102053.41;10063283;28;20061;-65
2023/02/16 09:19:51;;;;;;;50.35;31.13;;;;;;;5.96;100.00;102048.22;10064555;28;20055;-66
2023/02/16 09:24:47;;;;;;;46.15;28.83;;;;;;;5.95;100.00;102057.44;10079343;28;20758;-65
2023/02/16 09:29:44;;;;;;;48.80;33.63;;;;;;;5.98;100.00;102065.88;10058707;28;20050;-65
2023/02/16 09:34:41;;;;;;;55.58;34.80;;;;;;;6.03;100.00;102067.84;10057792;28;20142;-66
2023/02/16 09:39:37;;;;;;;49.05;30.63;;;;;;;6.06;100.00;102073.59;10061163;28;20061;-65
2023/02/16 09:45:08;;;;;;;48.10;32.58;;;;;;;5.88;100.00;102082.84;10065759;28;20058;-66
2023/02/16 09:50:19;;;;;;;49.10;30.58;;;;;;;5.82;100.00;102092.00;10045371;28;20055;-66
2023/02/16 09:56:03;;;;;;;53.80;33.55;;;;;;;5.80;100.00;102090.59;10059952;28;20047;-65
2023/02/16 10:01:08;;;;;;;;;;;;;;;5.94;100.00;102086.50;10069713;28;20474;-65
2023/02/16 10:06:28;;;;;;;53.38;32.47;;;;;;;6.02;100.00;102088.75;10065598;28;20332;-65
2023/02/16 10:11:50;;;;;;;48.03;31.13;;;;;;;6.33;100.00;102083.66;10066188;28;20043;-66
2023/02/16 10:17:00;;;;;;;46.03;29.63;;;;;;;6.25;100.00;102086.84;10066132;28;20528;-66
2023/02/16 10:22:02;;;;;;;54.00;31.67;;;;;;;6.19;100.00;102091.38;10061849;28;20047;-66
2023/02/16 10:27:06;;;;;;;38.72;25.75;;;;;;;6.06;100.00;102094.50;10069635;28;20043;-65
2023/02/16 10:32:25;;;;;;;51.60;34.47;;;;;;;5.92;100.00;102104.91;10075718;28;20525;-65
2023/02/16 10:38:00;;;;;;;48.08;33.35;;;;;;;5.90;100.00;102102.44;10061782;28;20051;-66
2023/02/16 10:43:10;;;;;;;50.47;32.85;;;;;;;5.94;100.00;102107.34;10069493;28;20051;-65
2023/02/16 10:48:08;;;;;;;52.35;33.75;;;;;;;6.04;100.00;102102.09;10071655;28;20418;-65
2023/02/16 10:53:12;;;;;;;54.05;33.38;;;;;;;6.13;100.00;102105.16;10066284;28;20074;-65
2023/02/16 10:58:35;;;;;;;51.50;33.90;;;;;;;6.24;100.00;102098.75;10079459;28;20506;-65
2023/02/16 11:03:38;;;;;;;44.65;30.67;;;;;;;6.38;100.00;102100.00;10066585;28;20054;-65
2023/02/16 11:08:48;;;;;;;48.60;32.28;;;;;;;6.46;100.00;102099.56;10068047;28;20059;-66
2023/02/16 11:13:49;;;;;;;44.38;30.05;;;;;;;6.69;100.00;102081.28;10064470;28;20086;-65
2023/02/16 11:18:55;;;;;;;55.60;34.83;;;;;;;6.88;100.00;102093.41;10057228;28;20075;-66
2023/02/16 11:24:00;;;;;;;50.33;32.85;;;;;;;6.84;100.00;102078.69;10084808;28;20780;-66
2023/02/16 11:29:16;;;;;;;47.67;32.25;;;;;;;6.81;100.00;102079.22;10085786;28;20043;-65
2023/02/16 11:34:21;;;;;;;47.00;33.00;;;;;;;6.82;100.00;102075.41;10072253;28;20178;-66
2023/02/16 11:39:23;;;;;;;54.28;33.00;;;;;;;6.86;100.00;102073.81;10081741;28;20079;-66
2023/02/16 11:44:38;;;;;;;52.17;34.97;;;;;;;6.82;100.00;102075.41;10059607;28;20134;-65
2023/02/16 11:49:40;;;;;;;55.05;35.33;;;;;;;6.88;100.00;102079.00;10059118;28;20059;-66
2023/02/16 11:54:46;;;;;;;53.00;34.85;;;;;;;6.84;100.00;102073.25;10078458;28;20135;-65
2023/02/16 11:59:43;;;;;;;63.53;34.20;;;;;;;6.90;100.00;102077.66;10064515;28;20551;-65
2023/02/16 12:04:56;;;;;;;51.38;35.30;;;;;;;6.93;100.00;102071.69;10068923;28;20082;-65
2023/02/16 12:10:07;;;;;;;49.60;34.97;;;;;;;6.95;100.00;102066.81;10066811;28;20058;-66
2023/02/16 12:15:13;;;;;;;55.60;36.15;;;;;;;7.02;100.00;102060.34;10063762;28;20520;-66
2023/02/16 12:20:34;;;;;;;62.38;36.40;;;;;;;7.03;100.00;102056.53;10069671;28;20051;-66
2023/02/16 12:25:38;;;;;;;63.63;41.13;;;;;;;6.93;100.00;102066.25;10065262;28;20437;-66
2023/02/16 12:30:48;;;;;;;59.83;38.05;;;;;;;6.91;100.00;102062.97;10062691;28;20054;-66
2023/02/16 12:36:08;;;;;;;68.38;39.92;;;;;;;6.90;100.00;102068.69;10066072;28;20054;-66
2023/02/16 12:41:30;;;;;;;70.25;43.03;;;;;;;6.94;100.00;102067.91;10062568;28;20066;-66
2023/02/16 12:46:37;;;;;;;61.97;38.17;;;;;;;6.97;100.00;102060.31;10056889;28;20053;-65
2023/02/16 12:51:42;;;;;;;70.18;42.35;;;;;;;6.91;100.00;102052.09;10072415;28;20065;-65
2023/02/16 12:56:44;;;;;;;62.90;40.03;;;;;;;7.05;100.00;102051.66;10070380;28;20047;-66
2023/02/16 13:01:43;;;;;;;73.18;45.13;;;;;;;7.09;100.00;102042.72;10064867;28;20054;-65
2023/02/16 13:06:58;;;;;;;78.20;46.88;;;;;;;7.08;100.00;102045.72;10060172;28;20047;-65
2023/02/16 13:11:58;;;;;;;72.30;45.70;;;;;;;7.09;100.00;102026.41;10069092;28;20505;-65
2023/02/16 13:17:01;;;;;;;72.25;45.00;;;;;;;7.02;100.00;102035.88;10067098;28;20047;-66
2023/02/16 13:22:15;;;;;;;81.03;51.25;;;;;;;6.91;100.00;102035.78;10068747;28;20522;-66
2023/02/16 13:27:27;;;;;;;74.80;49.72;;;;;;;6.90;100.00;102031.44;10068781;28;20131;-66
2023/02/16 13:32:48;;;;;;;82.90;48.45;;;;;;;7.07;100.00;102022.31;10068380;28;20565;-66
2023/02/16 13:37:58;;;;;;;79.93;47.47;;;;;;;7.17;100.00;102011.47;10068007;28;20565;-65
2023/02/16 13:43:30;;;;;;;71.38;46.67;;;;;;;7.29;100.00;102006.66;10065418;28;20498;-65
2023/02/16 13:48:37;;;;;;;67.47;44.15;;;;;;;7.28;100.00;102007.75;10062854;28;20063;-66
2023/02/16 13:53:40;;;;;;;70.38;43.92;;;;;;;7.23;100.00;102010.44;10054857;28;20051;-65
2023/02/16 13:58:39;;;;;;;65.60;44.80;;;;;;;7.24;100.00;102003.94;10053280;28;20144;-65
2023/02/16 14:03:37;;;;;;;72.43;47.40;;;;;;;7.32;100.00;101999.88;10074194;28;20055;-65
2023/02/16 14:08:34;;;;;;;70.70;46.28;;;;;;;7.44;100.00;102007.81;10078162;28;20493;-65
2023/02/16 14:13:36;;;;;;;69.85;45.30;;;;;;;7.46;100.00;101997.50;10077100;28;20035;-65
2023/02/16 14:19:24;;;;;;;72.72;45.08;;;;;;;7.52;100.00;101988.25;10078817;28;20646;-66
2023/02/16 14:24:24;;;;;;;67.55;46.53;;;;;;;7.46;100.00;101981.16;10066858;28;20043;-65
2023/02/16 14:29:31;;;;;;;68.18;44.95;;;;;;;7.40;100.00;101988.47;10056611;28;20154;-65
2023/02/16 14:34:36;;;;;;;70.45;47.67;;;;;;;7.41;100.00;101983.88;10055905;28;20391;-65
2023/02/16 14:39:33;;;;;;;75.20;45.78;;;;;;;7.40;100.00;101979.50;10050474;28;20139;-66
2023/02/16 14:45:00;;;;;;;62.85;43.78;;;;;;;7.44;100.00;101977.88;10057073;28;20051;-65
2023/02/16 14:50:19;;;;;;;61.67;42.67;;;;;;;7.44;100.00;101969.72;10054140;28;20068;-65
2023/02/16 14:55:40;;;;;;;67.38;46.38;;;;;;;7.41;100.00;101967.53;10073460;28;20056;-65
2023/02/16 15:00:44;;;;;;;62.75;41.88;;;;;;;7.36;100.00;101971.88;10060385;28;20130;-65
2023/02/16 15:05:42;;;;;;;68.47;44.67;;;;;;;7.43;100.00;101965.38;10063234;28;20047;-65
2023/02/16 15:10:39;;;;;;;60.83;41.83;;;;;;;7.42;100.00;101961.00;10070077;28;20516;-65
2023/02/16 15:15:44;;;;;;;58.47;42.33;;;;;;;7.37;100.00;101968.06;10072835;28;20043;-66
2023/02/16 15:20:44;;;;;;;65.55;45.03;;;;;;;7.35;100.00;101975.66;10061535;28;20653;-66
2023/02/16 15:25:41;;;;;;;65.90;46.95;;;;;;;7.25;100.00;101975.63;10071337;28;20055;-66
2023/02/16 15:30:53;;;;;;;67.20;46.30;;;;;;;7.04;100.00;101991.03;10065474;28;20058;-66
2023/02/16 15:35:58;;;;;;;65.60;48.75;;;;;;;6.98;100.00;101989.34;10070089;28;20122;-66
2023/02/16 15:40:58;;;;;;;64.40;48.10;;;;;;;6.92;100.00;101988.50;10070862;28;20146;-66
2023/02/16 15:45:55;;;;;;;64.07;47.17;;;;;;;6.92;100.00;101993.94;10065707;28;20184;-67
2023/02/16 15:50:55;;;;;;;68.90;48.85;;;;;;;6.88;100.00;101990.09;10076113;28;20081;-66
2023/02/16 15:55:52;;;;;;;68.85;50.63;;;;;;;6.80;100.00;102001.47;10079202;28;20122;-66
2023/02/16 16:00:48;;;;;;;76.70;51.25;;;;;;;6.74;100.00;101997.06;10069312;28;20071;-66
2023/02/16 16:05:59;;;;;;;78.40;56.75;;;;;;;6.71;100.00;101997.59;10072297;28;20039;-66
2023/02/16 16:10:56;;;;;;;83.18;55.22;;;;;;;6.62;100.00;101993.72;10069712;28;20074;-66
2023/02/16 16:15:58;;;;;;;76.38;52.88;;;;;;;6.56;100.00;102000.19;10069502;28;20050;-66
2023/02/16 16:20:59;;;;;;;;;;;;;;;6.53;100.00;102002.34;10070856;28;20506;-67
2023/02/16 16:25:56;;;;;;;88.68;58.28;;;;;;;6.47;100.00;102000.66;10063035;28;19969;-66
2023/02/16 16:31:05;;;;;;;86.80;56.13;;;;;;;6.43;100.00;101994.13;10067016;28;20051;-67
2023/02/16 16:36:11;;;;;;;83.82;56.38;;;;;;;6.44;100.00;101998.47;10060477;28;20145;-66
2023/02/16 16:41:24;;;;;;;87.10;56.67;;;;;;;6.45;100.00;101994.69;10057092;28;20051;-67
2023/02/16 16:46:26;;;;;;;84.60;56.85;;;;;;;6.43;100.00;101985.97;10047182;28;20053;-67
2023/02/16 16:51:22;;;;;;;81.40;58.13;;;;;;;6.42;100.00;101978.88;10067096;28;20051;-66
2023/02/16 16:56:20;;;;;;;76.10;55.47;;;;;;;6.40;100.00;101980.22;10062980;28;20055;-67
2023/02/16 17:01:19;;;;;;;81.10;56.40;;;;;;;6.35;100.00;101978.28;10070665;28;20525;-66
2023/02/16 17:06:17;;;;;;;72.97;53.13;;;;;;;6.38;100.00;101971.50;10061273;28;20094;-66
2023/02/16 17:11:34;;;;;;;65.03;46.45;;;;;;;6.44;100.00;101974.00;10063426;28;20047;-67
2023/02/16 17:16:35;;;;;;;71.32;48.63;;;;;;;6.41;100.00;101974.53;10068548;28;20157;-67
2023/02/16 17:21:31;;;;;;;60.78;45.30;;;;;;;6.45;100.00;101978.38;10078883;28;20514;-66
2023/02/16 17:26:28;;;;;;;63.13;44.97;;;;;;;6.49;100.00;101979.47;10086773;28;20511;-66
2023/02/16 17:31:24;;;;;;;59.53;43.97;;;;;;;6.50;100.00;101978.41;10052777;28;20110;-66
2023/02/16 17:36:24;;;;;;;62.45;43.95;;;;;;;6.49;100.00;101957.75;10057286;28;20553;-66
2023/02/16 17:41:26;;;;;;;63.05;45.40;;;;;;;6.51;100.00;101960.22;10060837;28;20050;-66
2023/02/16 17:46:24;;;;;;;67.70;44.00;;;;;;;6.47;100.00;101949.03;10067580;28;20102;-66
2023/02/16 17:51:23;;;;;;;61.75;43.75;;;;;;;6.42;100.00;101953.59;10060313;28;20059;-66
2023/02/16 17:56:21;;;;;;;62.92;44.63;;;;;;;6.43;100.00;101974.25;10058897;28;20066;-66
2023/02/16 18:01:19;;;;;;;62.83;44.63;;;;;;;6.44;100.00;101968.56;10058912;28;20055;-66
2023/02/16 18:06:19;;;;;;;57.30;41.38;;;;;;;6.50;100.00;101956.69;10054908;28;20059;-66
2023/02/16 18:11:16;;;;;;;58.75;44.38;;;;;;;6.52;100.00;101959.97;10041137;28;21661;-66
2023/02/16 18:16:17;;;;;;;63.10;44.38;;;;;;;6.55;100.00;101965.94;10044624;28;20128;-66
2023/02/16 18:21:13;;;;;;;68.80;46.05;;;;;;;6.57;100.00;101974.63;10040861;28;20051;-66
2023/02/16 18:26:14;;;;;;;65.03;47.38;;;;;;;6.60;100.00;101974.13;10045604;28;20054;-66
2023/02/16 18:31:11;;;;;;;66.43;47.83;;;;;;;6.62;100.00;101977.41;10046514;28;20825;-66
2023/02/16 18:36:08;;;;;;;59.10;43.05;;;;;;;6.59;100.00;101967.88;10041766;28;20483;-66
2023/02/16 18:41:05;;;;;;;62.63;45.92;;;;;;;6.58;100.00;101970.84;10038728;28;20053;-66
2023/02/16 18:46:08;;;;;;;63.10;47.10;;;;;;;6.59;100.00;101972.47;10061720;28;20055;-66
2023/02/16 18:51:07;;;;;;;60.28;47.22;;;;;;;6.60;100.00;101957.84;10082877;28;20047;-66
2023/02/16 18:56:05;;;;;;;58.03;44.72;;;;;;;6.57;100.00;101969.19;10079374;28;20138;-65
2023/02/16 19:01:23;;;;;;;67.68;44.60;;;;;;;6.57;100.00;101952.91;10071306;28;20039;-65
2023/02/16 19:06:20;;;;;;;61.88;43.35;;;;;;;6.50;100.00;101955.88;10079159;28;20059;-66
2023/02/16 19:11:20;;;;;;;63.85;44.22;;;;;;;6.46;100.00;101957.47;10081648;28;20065;-66
2023/02/16 19:16:17;;;;;;;59.80;42.47;;;;;;;6.46;100.00;101958.25;10072827;28;20135;-65
2023/02/16 19:21:13;;;;;;;62.17;43.55;;;;;;;6.46;100.00;101949.31;10079915;28;20069;-66
2023/02/16 19:26:13;;;;;;;76.68;47.78;;;;;;;6.45;100.00;101950.38;10073172;28;20094;-66
2023/02/16 19:31:19;;;;;;;68.10;43.75;;;;;;;6.46;100.00;101944.69;10071401;28;20055;-66
2023/02/16 19:36:17;;;;;;;62.15;42.72;;;;;;;6.43;100.00;101942.50;10082928;28;20039;-66
2023/02/16 19:41:20;;;;;;;70.32;44.15;;;;;;;6.47;100.00;101938.16;10067392;28;20058;-66
2023/02/16 19:46:16;;;;;;;;;;;;;;;6.50;100.00;101932.22;10065756;28;20552;-66
2023/02/16 19:51:14;;;;;;;88.68;50.65;;;;;;;6.45;100.00;101929.47;10076275;28;19986;-66
2023/02/16 19:56:14;;;;;;;72.28;46.50;;;;;;;6.48;100.00;101912.63;10066479;28;20698;-66
2023/02/16 20:01:14;;;;;;;85.10;52.08;;;;;;;6.50;100.00;101905.06;10080245;28;20456;-66
2023/02/16 20:06:15;;;;;;;70.55;46.78;;;;;;;6.52;100.00;101896.63;10080432;28;20043;-66
2023/02/16 20:11:12;;;;;;;69.93;47.90;;;;;;;6.51;100.00;101895.00;10058620;28;20047;-66
2023/02/16 20:16:10;;;;;;;66.10;45.88;;;;;;;6.52;100.00;101902.91;10070430;28;20502;-65
2023/02/16 20:21:11;;;;;;;73.40;49.20;;;;;;;6.55;100.00;101895.31;10070849;28;20128;-65
2023/02/16 20:26:20;;;;;;;80.72;54.80;;;;;;;6.56;100.00;101886.06;10087432;28;20061;-65
2023/02/16 20:31:27;;;;;;;75.63;47.85;;;;;;;6.51;100.00;101868.63;10075652;28;20453;-65
2023/02/16 20:36:24;;;;;;;63.42;47.88;;;;;;;6.56;100.00;101867.03;10072658;28;20101;-65
2023/02/16 20:41:21;;;;;;;66.70;47.42;;;;;;;6.51;100.00;101863.19;10083551;28;20058;-65
2023/02/16 20:46:22;;;;;;;80.88;55.10;;;;;;;6.49;100.00;101849.06;10062348;28;20130;-65
2023/02/16 20:51:19;;;;;;;82.30;53.08;;;;;;;6.51;100.00;101840.66;10078310;28;20529;-65
2023/02/16 20:56:19;;;;;;;72.70;48.17;;;;;;;6.52;100.00;101826.81;10063683;28;20130;-65
2023/02/16 21:01:26;;;;;;;71.70;49.78;;;;;;;6.51;100.00;101811.56;10054579;28;20074;-69
2023/02/16 21:06:24;;;;;;;81.97;50.42;;;;;;;6.57;100.00;101806.16;10045819;28;20051;-65
2023/02/16 21:11:21;;;;;;;76.90;50.15;;;;;;;6.58;100.00;101802.38;10052172;28;20504;-66
2023/02/16 21:16:17;;;;;;;94.45;59.08;;;;;;;6.51;100.00;101800.72;10056559;28;20442;-66
2023/02/16 21:21:14;;;;;;;77.85;51.95;;;;;;;6.51;100.00;101792.56;10060637;28;20079;-66
2023/02/16 21:26:11;;;;;;;75.10;53.15;;;;;;;6.52;100.00;101799.63;10064861;28;20054;-66
2023/02/16 21:31:10;;;;;;;81.10;55.40;;;;;;;6.47;100.00;101783.28;10060932;28;20453;-66
2023/02/16 21:36:12;;;;;;;76.68;55.67;;;;;;;6.55;100.00;101786.63;10062921;28;20509;-66
2023/02/16 21:41:24;;;;;;;81.83;52.87;;;;;;;6.54;100.00;101774.91;10065193;28;20162;-66
2023/02/16 21:46:21;;;;;;;75.88;52.70;;;;;;;6.61;100.00;101764.59;10057150;28;20065;-67
2023/02/16 21:51:21;;;;;;;72.45;49.72;;;;;;;6.60;100.00;101751.31;10062007;28;20541;-66
2023/02/16 21:56:45;;;;;;;76.68;50.95;;;;;;;6.62;100.00;101743.72;10066420;28;20086;-67
2023/02/16 22:01:45;;;;;;;68.50;49.70;;;;;;;6.59;100.00;101744.22;10080572;28;20513;-66
2023/02/16 22:06:45;;;;;;;80.80;56.08;;;;;;;6.62;100.00;101743.72;10068807;28;20044;-67
2023/02/16 22:11:43;;;;;;;65.15;47.45;;;;;;;6.64;100.00;101727.97;10065096;28;20523;-67
2023/02/16 22:16:40;;;;;;;65.80;47.90;;;;;;;6.67;100.00;101730.13;10054224;28;20110;-66
2023/02/16 22:21:38;;;;;;;59.97;44.67;;;;;;;6.69;100.00;101733.41;10065991;28;20532;-66
2023/02/16 22:26:34;;;;;;;60.70;46.53;;;;;;;6.75;100.00;101721.44;10093904;28;20682;-66
2023/02/16 22:31:31;;;;;;;59.00;45.78;;;;;;;6.78;100.00;101717.38;10083944;28;20408;-66
2023/02/16 22:36:28;;;;;;;59.75;44.00;;;;;;;6.82;100.00;101702.97;10069719;28;20047;-67
2023/02/16 22:41:24;;;;;;;59.95;43.85;;;;;;;6.86;100.00;101701.34;10083518;28;20053;-67
2023/02/16 22:46:22;;;;;;;55.88;44.92;;;;;;;6.90;100.00;101696.22;10071958;28;20079;-66
2023/02/16 22:51:20;;;;;;;62.08;47.15;;;;;;;6.87;100.00;101686.69;10065429;28;20475;-66
2023/02/16 22:56:17;;;;;;;54.60;44.22;;;;;;;6.93;100.00;101680.16;10070091;28;20043;-66
2023/02/16 23:01:19;;;;;;;58.90;43.75;;;;;;;6.95;100.00;101672.56;10085669;28;20080;-67
2023/02/16 23:06:19;;;;;;;56.63;44.47;;;;;;;6.97;100.00;101679.66;10078576;28;20082;-67
2023/02/16 23:11:15;;;;;;;57.33;44.45;;;;;;;7.01;100.00;101664.41;10080424;28;20491;-66
2023/02/16 23:16:17;;;;;;;58.70;45.85;;;;;;;7.04;100.00;101653.00;10086163;28;20855;-65
2023/02/16 23:21:23;;;;;;;49.42;41.03;;;;;;;7.04;100.00;101663.88;10077999;28;20043;-67